createdAt,value
2019-02-28T00:02:15.048Z,76.28
2019-02-28T00:04:47.528Z,77.22
2019-02-28T00:07:20.125Z,73.15
2019-02-28T00:09:52.816Z,83.70
2019-02-28T00:12:25.644Z,74.62
2019-02-28T00:14:58.619Z,76.20
2019-02-28T00:17:32.168Z,73.97
2019-02-28T00:20:04.839Z,77.65
2019-02-28T00:22:37.256Z,82.57
2019-02-28T00:25:11.597Z,84.45
2019-02-28T00:27:44.094Z,75.97
2019-02-28T00:30:17.846Z,73.80
2019-02-28T00:32:50.495Z,80.97
2019-02-28T00:35:23.048Z,76.17
2019-02-28T00:37:56.694Z,72.58
2019-02-28T00:40:29.616Z,77.25
2019-02-28T00:43:02.143Z,74.05
2019-02-28T00:45:37.222Z,67.75
2019-02-28T00:48:08.692Z,74.45
2019-02-28T00:50:41.449Z,80.17
2019-02-28T00:53:13.725Z,74.65
2019-02-28T00:55:47.007Z,77.92
2019-02-28T00:58:19.470Z,85.75
2019-02-28T01:00:52.509Z,76.35
2019-02-28T01:03:27.424Z,77.78
2019-02-28T01:05:59.044Z,85.22
2019-02-28T01:08:31.782Z,82.45
2019-02-28T01:11:04.278Z,85.20
2019-02-28T01:13:36.884Z,83.07
2019-02-28T01:16:09.395Z,83.72
2019-02-28T01:18:41.957Z,87.02
2019-02-28T01:21:14.350Z,76.97
2019-02-28T01:23:46.723Z,80.50
2019-02-28T01:26:19.355Z,81.63
2019-02-28T01:28:51.839Z,78.05
2019-02-28T01:31:24.355Z,81.47
2019-02-28T01:33:58.759Z,78.10
2019-02-28T01:36:30.838Z,87.00
2019-02-28T01:39:03.166Z,92.82
2019-02-28T01:41:36.971Z,90.12
2019-02-28T01:44:09.500Z,90.30
2019-02-28T01:46:41.843Z,93.92
2019-02-28T01:49:14.279Z,92.88
2019-02-28T01:51:46.813Z,90.25
2019-02-28T01:54:19.581Z,85.70
2019-02-28T01:56:51.852Z,87.30
2019-02-28T01:59:24.489Z,88.95
2019-02-28T02:01:57.076Z,85.77
2019-02-28T02:04:30.211Z,85.07
2019-02-28T02:07:02.965Z,85.72
2019-02-28T02:09:35.784Z,78.15
2019-02-28T02:12:08.343Z,82.97
2019-02-28T02:14:44.528Z,86.45
2019-02-28T02:17:14.487Z,83.97
2019-02-28T02:19:49.342Z,80.28
2019-02-28T02:22:20.806Z,82.57
2019-02-28T02:24:53.218Z,84.95
2019-02-28T02:27:25.511Z,83.03
2019-02-28T02:29:58.141Z,81.28
2019-02-28T02:32:37.507Z,78.85
2019-02-28T02:35:08.563Z,79.45
2019-02-28T02:37:41.484Z,75.50
2019-02-28T02:40:16.647Z,74.20
2019-02-28T02:42:50.126Z,71.12
2019-02-28T02:45:22.850Z,74.03
2019-02-28T02:47:55.611Z,70.22
2019-02-28T02:50:34.021Z,75.80
2019-02-28T02:53:05.578Z,70.25
2019-02-28T02:55:35.741Z,71.30
2019-02-28T02:58:08.605Z,71.65
2019-02-28T03:00:41.049Z,75.05
2019-02-28T03:03:13.796Z,78.83
2019-02-28T03:05:46.184Z,74.45
2019-02-28T03:08:18.739Z,70.00
2019-02-28T03:10:52.973Z,76.55
2019-02-28T03:13:25.507Z,74.40
2019-02-28T03:15:59.292Z,69.50
2019-02-28T03:18:31.936Z,74.87
2019-02-28T03:21:04.436Z,69.90
2019-02-28T03:23:39.818Z,69.97
2019-02-28T03:26:11.125Z,68.75
2019-02-28T03:28:43.528Z,73.50
2019-02-28T03:31:16.060Z,66.28
2019-02-28T03:33:49.647Z,68.83
2019-02-28T03:36:22.421Z,70.97
2019-02-28T03:38:54.921Z,67.05
2019-02-28T03:41:27.483Z,66.40
2019-02-28T03:44:00.059Z,65.00
2019-02-28T03:46:32.399Z,67.53
2019-02-28T03:49:10.955Z,66.90
2019-02-28T03:51:38.933Z,63.65
2019-02-28T03:54:11.315Z,64.77
2019-02-28T03:56:51.357Z,67.10
2019-02-28T03:59:18.959Z,63.52
2019-02-28T04:01:51.673Z,64.77
2019-02-28T04:04:24.282Z,61.80
2019-02-28T04:06:56.940Z,63.48
2019-02-28T04:09:29.578Z,63.35
2019-02-28T04:12:06.979Z,64.90
2019-02-28T04:14:35.797Z,64.92
2019-02-28T04:17:09.897Z,61.45
2019-02-28T04:19:42.377Z,62.93
2019-02-28T04:22:14.922Z,66.17
2019-02-28T04:24:47.736Z,62.65
2019-02-28T04:27:23.093Z,60.98
2019-02-28T04:29:55.356Z,63.25
2019-02-28T04:32:28.087Z,62.48
2019-02-28T04:35:00.497Z,63.58
2019-02-28T04:37:33.754Z,63.25
2019-02-28T04:40:08.239Z,62.78
2019-02-28T04:42:40.990Z,61.75
2019-02-28T04:45:15.366Z,65.85
2019-02-28T04:47:48.504Z,62.67
2019-02-28T04:50:20.884Z,62.90
2019-02-28T04:52:53.294Z,66.50
2019-02-28T04:55:25.670Z,60.98
2019-02-28T04:57:57.928Z,60.35
2019-02-28T05:00:30.624Z,65.87
2019-02-28T05:03:03.143Z,59.03
2019-02-28T05:05:35.473Z,58.68
2019-02-28T05:08:07.771Z,60.45
2019-02-28T05:10:40.568Z,59.42
2019-02-28T05:13:14.301Z,60.75
2019-02-28T05:15:47.162Z,59.95
2019-02-28T05:18:19.657Z,60.28
2019-02-28T05:20:52.331Z,60.70
2019-02-28T05:23:24.562Z,60.48
2019-02-28T05:25:56.957Z,60.48
2019-02-28T05:28:29.521Z,60.15
2019-02-28T05:31:02.081Z,60.73
2019-02-28T05:33:35.199Z,60.00
2019-02-28T05:36:07.676Z,63.10
2019-02-28T05:38:40.279Z,62.60
2019-02-28T05:41:15.382Z,61.95
2019-02-28T05:43:46.521Z,63.98
2019-02-28T05:46:20.360Z,60.25
2019-02-28T05:48:53.563Z,57.78
2019-02-28T05:51:26.069Z,58.60
2019-02-28T05:53:58.271Z,56.55
2019-02-28T05:56:33.130Z,59.48
2019-02-28T05:59:04.396Z,63.02
2019-02-28T06:01:36.835Z,62.03
2019-02-28T06:04:09.465Z,61.83
2019-02-28T06:06:41.959Z,62.73
2019-02-28T06:09:14.810Z,62.05
2019-02-28T06:11:47.066Z,62.67
2019-02-28T06:14:19.622Z,62.40
2019-02-28T06:16:52.439Z,64.22
2019-02-28T06:19:24.741Z,62.83
2019-02-28T06:21:59.519Z,63.08
2019-02-28T06:24:31.112Z,63.33
2019-02-28T06:27:06.324Z,63.08
2019-02-28T06:29:37.801Z,61.48
2019-02-28T06:32:10.256Z,60.10
2019-02-28T06:34:43.074Z,58.80
2019-02-28T06:37:15.908Z,59.98
2019-02-28T06:39:48.687Z,59.27
2019-02-28T06:42:21.047Z,60.00
2019-02-28T06:44:53.340Z,59.88
2019-02-28T06:47:26.038Z,60.23
2019-02-28T06:49:58.679Z,62.17
2019-02-28T06:52:31.096Z,62.27
2019-02-28T06:55:03.587Z,62.15
2019-02-28T06:57:36.037Z,60.17
2019-02-28T07:00:13.329Z,59.15
2019-02-28T07:02:44.536Z,58.45
2019-02-28T07:05:17.625Z,58.23
2019-02-28T07:07:50.346Z,63.87
2019-02-28T07:10:22.794Z,57.73
2019-02-28T07:12:55.192Z,58.70
2019-02-28T07:15:27.669Z,59.85
2019-02-28T07:18:00.403Z,57.80
2019-02-28T07:20:35.077Z,58.02
2019-02-28T07:23:08.259Z,57.73
2019-02-28T07:25:40.655Z,58.08
2019-02-28T07:28:13.058Z,55.95
2019-02-28T07:30:46.103Z,59.65
2019-02-28T07:33:18.674Z,57.70
2019-02-28T07:35:51.026Z,57.25
2019-02-28T07:38:25.641Z,56.63
2019-02-28T07:40:57.255Z,54.85
2019-02-28T07:43:29.930Z,55.12
2019-02-28T07:46:04.522Z,55.98
2019-02-28T07:48:36.099Z,59.13
2019-02-28T07:51:08.633Z,57.98
2019-02-28T07:53:41.980Z,56.83
2019-02-28T07:56:14.380Z,55.73
2019-02-28T07:58:46.795Z,55.15
2019-02-28T08:01:31.811Z,57.08
2019-02-28T08:04:04.310Z,56.70
2019-02-28T08:06:39.202Z,56.60
2019-02-28T08:09:23.759Z,54.23
2019-02-28T08:11:56.742Z,55.95
2019-02-28T08:14:29.726Z,57.83
2019-02-28T08:17:05.406Z,57.93
2019-02-28T08:19:36.336Z,57.13
2019-02-28T08:22:08.689Z,58.17
2019-02-28T08:24:41.145Z,57.05
2019-02-28T08:27:13.261Z,58.33
2019-02-28T08:29:46.213Z,56.23
2019-02-28T08:32:18.890Z,59.88
2019-02-28T08:34:51.354Z,57.93
2019-02-28T08:37:36.195Z,54.15
2019-02-28T08:40:12.580Z,55.38
2019-02-28T08:42:45.118Z,53.60
2019-02-28T08:45:18.276Z,61.83
2019-02-28T08:47:55.283Z,56.48
2019-02-28T08:50:26.255Z,54.10
2019-02-28T08:53:01.391Z,54.38
2019-02-28T08:55:33.751Z,53.80
2019-02-28T08:58:06.781Z,55.33
2019-02-28T09:00:58.353Z,54.93
2019-02-28T09:03:30.985Z,56.50
2019-02-28T09:06:04.189Z,55.67
2019-02-28T09:08:37.180Z,55.43
2019-02-28T09:11:11.109Z,55.95
2019-02-28T09:13:44.791Z,54.40
2019-02-28T09:16:18.260Z,55.95
2019-02-28T09:18:50.867Z,52.88
2019-02-28T09:21:23.349Z,55.05
2019-02-28T09:24:09.472Z,54.95
2019-02-28T09:26:42.260Z,54.80
2019-02-28T09:29:15.160Z,58.45
2019-02-28T09:31:47.598Z,58.55
2019-02-28T09:34:20.767Z,56.35
2019-02-28T09:36:56.661Z,57.27
2019-02-28T09:39:28.016Z,55.75
2019-02-28T09:42:00.440Z,59.10
2019-02-28T09:44:33.274Z,58.20
2019-02-28T09:47:06.656Z,56.55
2019-02-28T09:49:38.960Z,58.08
2019-02-28T09:52:11.171Z,56.02
2019-02-28T09:54:44.213Z,56.60
2019-02-28T09:57:18.998Z,57.00
2019-02-28T09:59:50.289Z,55.20
2019-02-28T10:02:23.482Z,56.33
2019-02-28T10:04:55.644Z,59.90
2019-02-28T10:07:28.103Z,60.17
2019-02-28T10:10:01.376Z,62.15
2019-02-28T10:12:34.477Z,57.05
2019-02-28T10:15:09.069Z,58.15
2019-02-28T10:17:54.904Z,58.10
2019-02-28T10:20:29.666Z,59.67
2019-02-28T10:23:15.121Z,58.63
2019-02-28T10:25:47.869Z,55.73
2019-02-28T10:28:20.555Z,58.83
2019-02-28T10:30:52.977Z,63.75
2019-02-28T10:33:25.529Z,69.27
2019-02-28T10:35:58.362Z,63.90
2019-02-28T10:38:33.050Z,61.88
2019-02-28T10:41:04.550Z,59.83
2019-02-28T10:43:37.202Z,63.48
2019-02-28T10:46:09.831Z,61.90
2019-02-28T10:48:50.761Z,63.35
2019-02-28T10:51:16.540Z,78.45
2019-02-28T10:53:49.035Z,81.72
2019-02-28T10:56:21.424Z,64.90
2019-02-28T10:58:54.472Z,67.92
2019-02-28T11:01:26.955Z,79.80
2019-02-28T11:04:00.328Z,68.83
2019-02-28T11:06:34.186Z,69.25
2019-02-28T11:09:06.987Z,65.70
2019-02-28T11:11:42.446Z,64.07
2019-02-28T11:14:13.113Z,65.12
2019-02-28T11:16:45.885Z,63.00
2019-02-28T11:19:19.471Z,65.15
2019-02-28T11:21:52.365Z,67.37
2019-02-28T11:24:27.070Z,68.62
2019-02-28T11:26:59.585Z,71.25
2019-02-28T11:29:35.147Z,72.50
2019-02-28T11:32:05.995Z,77.92
2019-02-28T11:34:38.564Z,85.75
2019-02-28T11:37:12.750Z,76.80
2019-02-28T11:39:44.839Z,80.17
2019-02-28T11:42:17.217Z,79.53
2019-02-28T11:44:49.961Z,116.00
2019-02-28T11:47:23.327Z,107.17
2019-02-28T11:49:56.210Z,95.95
2019-02-28T11:52:28.500Z,97.50
2019-02-28T11:55:01.147Z,104.30
2019-02-28T11:57:33.923Z,101.38
2019-02-28T12:00:08.689Z,89.05
2019-02-28T12:02:41.666Z,92.90
2019-02-28T12:05:15.618Z,91.20
2019-02-28T12:07:47.904Z,100.45
2019-02-28T12:10:20.534Z,90.47
2019-02-28T12:12:53.039Z,93.60
2019-02-28T12:15:28.420Z,102.10
2019-02-28T12:18:04.757Z,114.72
2019-02-28T12:20:34.976Z,124.05
2019-02-28T12:23:08.294Z,114.30
2019-02-28T12:25:42.790Z,107.55
2019-02-28T12:28:14.664Z,95.57
2019-02-28T12:30:47.576Z,96.40
2019-02-28T12:33:23.200Z,100.25
2019-02-28T12:35:54.769Z,95.28
2019-02-28T12:38:29.154Z,91.00
2019-02-28T12:41:01.258Z,90.65
2019-02-28T12:43:33.588Z,89.42
2019-02-28T12:46:06.265Z,102.15
2019-02-28T12:48:38.858Z,107.03
2019-02-28T12:51:11.438Z,102.78
2019-02-28T12:53:44.017Z,102.17
2019-02-28T12:56:16.758Z,103.80
2019-02-28T12:58:49.112Z,107.55
2019-02-28T13:01:22.476Z,102.38
2019-02-28T13:04:00.317Z,108.30
2019-02-28T13:06:29.490Z,104.10
2019-02-28T13:09:02.138Z,106.30
2019-02-28T13:11:36.562Z,106.27
2019-02-28T13:14:08.762Z,97.62
2019-02-28T13:16:41.229Z,106.17
2019-02-28T13:19:16.459Z,94.42
2019-02-28T13:21:47.870Z,111.42
2019-02-28T13:24:20.239Z,101.10
2019-02-28T13:26:53.993Z,101.67
2019-02-28T13:29:28.831Z,87.33
2019-02-28T13:32:01.420Z,90.55
2019-02-28T13:34:34.818Z,92.65
2019-02-28T13:37:07.161Z,88.75
2019-02-28T13:39:39.940Z,96.67
2019-02-28T13:42:12.225Z,106.15
2019-02-28T13:44:44.636Z,106.27
2019-02-28T13:47:17.406Z,101.55
2019-02-28T13:49:50.613Z,107.45
2019-02-28T13:52:23.453Z,99.97
2019-02-28T13:54:55.756Z,100.82
2019-02-28T13:57:28.621Z,102.67
2019-02-28T14:00:01.064Z,103.27
2019-02-28T14:02:34.012Z,101.97
2019-02-28T14:05:08.036Z,100.87
2019-02-28T14:07:40.734Z,96.42
2019-02-28T14:10:15.200Z,103.30
2019-02-28T14:12:48.045Z,98.22
2019-02-28T14:15:24.947Z,103.83
2019-02-28T14:17:57.056Z,101.02
2019-02-28T14:20:30.021Z,104.00
2019-02-28T14:23:02.677Z,91.82
2019-02-28T14:25:36.358Z,101.80
2019-02-28T14:28:09.694Z,97.57
2019-02-28T14:30:42.796Z,99.75
2019-02-28T14:33:19.184Z,97.75
2019-02-28T14:35:50.453Z,102.75
2019-02-28T14:38:23.592Z,98.52
2019-02-28T14:40:56.072Z,97.37
2019-02-28T14:43:29.073Z,94.00
2019-02-28T14:46:02.312Z,97.00
2019-02-28T14:48:36.598Z,103.95
2019-02-28T14:51:09.372Z,128.60
2019-02-28T14:53:42.071Z,126.95
2019-02-28T14:56:14.717Z,108.45
2019-02-28T14:58:47.214Z,100.12
2019-02-28T15:01:20.584Z,91.47
2019-02-28T15:03:56.285Z,102.62
2019-02-28T15:06:29.590Z,92.60
2019-02-28T15:09:03.180Z,98.78
2019-02-28T15:11:37.804Z,96.70
2019-02-28T15:14:10.461Z,100.85
2019-02-28T15:16:43.240Z,95.83
2019-02-28T15:19:15.963Z,98.92
2019-02-28T15:21:48.933Z,101.97
2019-02-28T15:24:21.934Z,98.87
2019-02-28T15:26:55.026Z,99.77
2019-02-28T15:29:27.771Z,99.55
2019-02-28T15:32:00.466Z,103.40
2019-02-28T15:34:33.325Z,102.00
2019-02-28T15:37:06.454Z,99.65
2019-02-28T15:39:40.132Z,104.55
2019-02-28T15:42:13.369Z,102.70
2019-02-28T15:45:00.315Z,111.22
2019-02-28T15:47:33.490Z,106.83
2019-02-28T15:50:08.467Z,104.97
2019-02-28T15:52:41.181Z,104.25
2019-02-28T15:55:26.523Z,105.15
2019-02-28T15:57:59.247Z,110.00
2019-02-28T16:00:33.583Z,112.10
2019-02-28T16:03:06.503Z,102.10
2019-02-28T16:05:42.987Z,105.15
2019-02-28T16:08:13.305Z,103.30
2019-02-28T16:10:53.347Z,107.85
2019-02-28T16:13:22.740Z,105.72
2019-02-28T16:15:53.689Z,109.95
2019-02-28T16:18:26.344Z,112.55
2019-02-28T16:20:58.657Z,114.95
2019-02-28T16:23:31.602Z,112.12
2019-02-28T16:26:04.366Z,118.40
2019-02-28T16:28:39.539Z,112.92
2019-02-28T16:31:10.663Z,112.08
2019-02-28T16:33:43.097Z,112.88
2019-02-28T16:36:15.960Z,110.90
2019-02-28T16:38:48.883Z,111.30
2019-02-28T16:41:22.511Z,123.72
2019-02-28T16:43:57.165Z,115.57
2019-02-28T16:46:30.249Z,119.53
2019-02-28T16:49:03.004Z,118.33
2019-02-28T16:51:35.910Z,111.50
2019-02-28T16:54:09.126Z,113.50
2019-02-28T16:56:41.564Z,113.10
2019-02-28T16:59:14.015Z,122.00
2019-02-28T17:01:46.414Z,129.85
2019-02-28T17:04:18.712Z,127.17
2019-02-28T17:06:51.238Z,121.07
2019-02-28T17:09:26.702Z,127.72
2019-02-28T17:12:00.799Z,138.18
2019-02-28T17:14:34.761Z,128.32
2019-02-28T17:17:11.892Z,113.45
2019-02-28T17:19:42.706Z,111.57
2019-02-28T17:22:15.668Z,114.85
2019-02-28T17:24:48.189Z,110.95
2019-02-28T17:27:22.049Z,120.13
2019-02-28T17:29:57.629Z,117.33
2019-02-28T17:32:31.338Z,112.52
2019-02-28T17:35:03.535Z,112.95
2019-02-28T17:37:36.039Z,114.70
2019-02-28T17:40:10.604Z,117.87
2019-02-28T17:42:46.415Z,110.85
2019-02-28T17:45:21.132Z,109.05
2019-02-28T17:47:56.291Z,113.68
2019-02-28T17:50:31.325Z,106.05
2019-02-28T17:53:07.093Z,107.85
2019-02-28T17:55:42.265Z,105.55
2019-02-28T17:58:17.444Z,114.67
2019-02-28T18:00:53.605Z,116.22
2019-02-28T18:03:28.957Z,111.75
2019-02-28T18:06:04.717Z,110.60
2019-02-28T18:08:39.539Z,110.42
2019-02-28T18:11:14.131Z,108.83
2019-02-28T18:13:52.112Z,108.12
2019-02-28T18:16:25.579Z,111.00
2019-02-28T18:19:00.003Z,111.08
2019-02-28T18:21:37.587Z,111.45
2019-02-28T18:24:10.529Z,110.70
2019-02-28T18:26:45.343Z,110.85
2019-02-28T18:29:20.536Z,118.28
2019-02-28T18:31:53.900Z,115.28
2019-02-28T18:34:26.879Z,111.97
2019-02-28T18:36:59.681Z,113.50
2019-02-28T18:39:31.971Z,111.97
2019-02-28T18:42:04.390Z,119.65
2019-02-28T18:44:37.471Z,116.30
2019-02-28T18:47:10.461Z,120.85
2019-02-28T18:49:42.910Z,116.28
2019-02-28T18:52:15.627Z,118.15
2019-02-28T18:54:48.280Z,118.08
2019-02-28T18:57:20.733Z,116.00
2019-02-28T18:59:54.679Z,120.22
2019-02-28T19:02:27.215Z,127.30
2019-02-28T19:05:00.046Z,116.53
2019-02-28T19:07:32.571Z,114.25
2019-02-28T19:10:06.302Z,119.67
2019-02-28T19:12:38.940Z,123.33
2019-02-28T19:15:13.567Z,127.90
2019-02-28T19:17:46.960Z,128.27
2019-02-28T19:20:19.808Z,128.97
2019-02-28T19:22:52.329Z,112.10
2019-02-28T19:25:24.750Z,119.75
2019-02-28T19:27:57.291Z,114.30
2019-02-28T19:30:30.010Z,116.97
2019-02-28T19:33:02.643Z,122.17
2019-02-28T19:35:35.160Z,118.17
2019-02-28T19:38:07.784Z,118.25
2019-02-28T19:40:40.306Z,118.60
2019-02-28T19:43:15.960Z,122.62
2019-02-28T19:45:50.656Z,127.50
2019-02-28T19:48:23.435Z,116.50
2019-02-28T19:50:55.847Z,133.70
2019-02-28T19:53:28.439Z,121.62
2019-02-28T19:56:00.860Z,130.18
2019-02-28T19:58:33.448Z,126.67
2019-02-28T20:01:05.966Z,130.78
2019-02-28T20:03:38.282Z,125.40
2019-02-28T20:06:10.604Z,127.40
2019-02-28T20:08:43.347Z,126.05
2019-02-28T20:11:15.993Z,126.35
2019-02-28T20:13:49.151Z,131.03
2019-02-28T20:16:21.686Z,136.62
2019-02-28T20:18:54.025Z,133.20
2019-02-28T20:21:26.670Z,136.68
2019-02-28T20:23:59.035Z,130.43
2019-02-28T20:26:31.543Z,143.93
2019-02-28T20:29:03.965Z,133.37
2019-02-28T20:31:36.684Z,133.22
2019-02-28T20:34:09.095Z,132.50
2019-02-28T20:36:42.204Z,122.07
2019-02-28T20:39:14.959Z,136.65
2019-02-28T20:41:47.714Z,129.57
2019-02-28T20:44:20.140Z,132.35
2019-02-28T20:46:52.863Z,124.30
2019-02-28T20:49:26.629Z,130.50
2019-02-28T20:51:59.158Z,126.95
2019-02-28T20:54:31.449Z,120.97
2019-02-28T20:57:03.936Z,114.82
2019-02-28T20:59:37.396Z,116.82
2019-02-28T21:02:10.146Z,120.57
2019-02-28T21:04:43.255Z,111.37
2019-02-28T21:07:17.438Z,112.25
2019-02-28T21:09:50.129Z,103.65
2019-02-28T21:12:22.791Z,110.52
2019-02-28T21:14:55.894Z,106.00
2019-02-28T21:17:29.571Z,113.35
2019-02-28T21:20:02.416Z,111.80
2019-02-28T21:22:35.707Z,104.83
2019-02-28T21:25:10.519Z,108.42
2019-02-28T21:27:42.922Z,111.95
2019-02-28T21:30:18.106Z,107.25
2019-02-28T21:32:50.684Z,102.90
2019-02-28T21:35:24.163Z,110.25
2019-02-28T21:37:57.703Z,109.15
2019-02-28T21:40:30.513Z,106.85
2019-02-28T21:43:03.314Z,104.47
2019-02-28T21:45:35.702Z,106.20
2019-02-28T21:48:08.608Z,101.85
2019-02-28T21:50:41.826Z,96.22
2019-02-28T21:53:14.923Z,99.87
2019-02-28T21:55:47.494Z,103.67
2019-02-28T21:58:20.054Z,100.90
2019-02-28T22:00:52.670Z,102.25
2019-02-28T22:03:25.035Z,98.75
2019-02-28T22:05:57.660Z,99.32
2019-02-28T22:08:30.586Z,99.05
2019-02-28T22:11:02.931Z,97.90
2019-02-28T22:13:35.571Z,96.28
2019-02-28T22:16:07.922Z,102.05
2019-02-28T22:18:40.671Z,92.92
2019-02-28T22:21:13.355Z,101.92
2019-02-28T22:23:45.790Z,102.72
2019-02-28T22:26:18.240Z,96.50
2019-02-28T22:28:50.975Z,103.30
2019-02-28T22:31:26.691Z,103.80
2019-02-28T22:34:00.383Z,101.87
2019-02-28T22:36:36.504Z,105.15
2019-02-28T22:39:10.866Z,100.87
2019-02-28T22:41:43.326Z,101.47
2019-02-28T22:44:16.001Z,105.20
2019-02-28T22:46:48.567Z,102.53
2019-02-28T22:49:21.278Z,108.45
2019-02-28T22:51:53.562Z,104.07
2019-02-28T22:54:26.146Z,106.90
2019-02-28T22:56:58.489Z,96.05
2019-02-28T22:59:30.957Z,100.35
2019-02-28T23:02:03.464Z,102.02
2019-02-28T23:04:36.280Z,100.20
2019-02-28T23:07:08.704Z,112.57
2019-02-28T23:09:42.759Z,108.47
2019-02-28T23:12:14.881Z,101.72
2019-02-28T23:14:47.346Z,104.10
2019-02-28T23:17:19.987Z,104.12
2019-02-28T23:19:52.514Z,103.10
2019-02-28T23:22:25.283Z,103.17
2019-02-28T23:24:57.678Z,98.10
2019-02-28T23:27:30.414Z,106.85
2019-02-28T23:30:05.013Z,102.38
2019-02-28T23:32:40.023Z,110.15
2019-02-28T23:35:15.085Z,106.63
2019-02-28T23:37:47.665Z,110.32
2019-02-28T23:40:20.310Z,112.62
2019-02-28T23:42:52.950Z,115.77
2019-02-28T23:45:25.511Z,106.45
2019-02-28T23:47:58.253Z,112.20
2019-02-28T23:50:30.557Z,109.05
2019-02-28T23:53:02.987Z,111.32
2019-02-28T23:55:35.354Z,111.08
2019-02-28T23:58:08.155Z,108.37
